sensor_id;sensor_type;location;lat;lon;timestamp;P1;durP1;ratioP1;P2;durP2;ratioP2
78443;SDS011;67739;52.986;8.894;2023-08-21T00:02:19;2.80;;;0.65;;
78443;SDS011;67739;52.986;8.894;2023-08-21T00:04:44;4.82;;;0.93;;
78443;SDS011;67739;52.986;8.894;2023-08-21T00:07:09;4.38;;;0.70;;
78443;SDS011;67739;52.986;8.894;2023-08-21T00:09:36;2.97;;;0.50;;
78443;SDS011;67739;52.986;8.894;2023-08-21T00:12:01;3.38;;;0.40;;
78443;SDS011;67739;52.986;8.894;2023-08-21T00:14:27;2.78;;;0.70;;
78443;SDS011;67739;52.986;8.894;2023-08-21T00:16:53;4.35;;;0.73;;
78443;SDS011;67739;52.986;8.894;2023-08-21T00:19:18;2.47;;;0.68;;
78443;SDS011;67739;52.986;8.894;2023-08-21T00:21:43;2.33;;;0.60;;
78443;SDS011;67739;52.986;8.894;2023-08-21T00:24:09;3.33;;;0.73;;
78443;SDS011;67739;52.986;8.894;2023-08-21T00:26:34;3.13;;;0.70;;
78443;SDS011;67739;52.986;8.894;2023-08-21T00:28:59;3.83;;;0.70;;
78443;SDS011;67739;52.986;8.894;2023-08-21T00:31:25;2.95;;;0.50;;
78443;SDS011;67739;52.986;8.894;2023-08-21T00:33:50;2.80;;;0.73;;
78443;SDS011;67739;52.986;8.894;2023-08-21T00:36:15;2.88;;;0.70;;
78443;SDS011;67739;52.986;8.894;2023-08-21T00:38:41;3.00;;;0.88;;
78443;SDS011;67739;52.986;8.894;2023-08-21T00:41:06;2.13;;;0.52;;
78443;SDS011;67739;52.986;8.894;2023-08-21T00:43:32;2.30;;;0.55;;
78443;SDS011;67739;52.986;8.894;2023-08-21T00:45:57;4.10;;;0.70;;
78443;SDS011;67739;52.986;8.894;2023-08-21T00:48:22;4.07;;;0.60;;
78443;SDS011;67739;52.986;8.894;2023-08-21T00:50:48;3.20;;;0.93;;
78443;SDS011;67739;52.986;8.894;2023-08-21T00:53:15;3.75;;;0.50;;
78443;SDS011;67739;52.986;8.894;2023-08-21T00:55:40;4.90;;;0.73;;
78443;SDS011;67739;52.986;8.894;2023-08-21T00:58:06;4.75;;;0.93;;
78443;SDS011;67739;52.986;8.894;2023-08-21T01:00:34;2.97;;;0.50;;
78443;SDS011;67739;52.986;8.894;2023-08-21T01:03:00;2.15;;;0.40;;
78443;SDS011;67739;52.986;8.894;2023-08-21T01:05:25;3.38;;;0.68;;
78443;SDS011;67739;52.986;8.894;2023-08-21T01:08:04;2.00;;;0.60;;
78443;SDS011;67739;52.986;8.894;2023-08-21T01:16:04;6.57;;;0.60;;
78443;SDS011;67739;52.986;8.894;2023-08-21T01:18:32;4.43;;;0.60;;
78443;SDS011;67739;52.986;8.894;2023-08-21T01:20:59;2.10;;;0.70;;
78443;SDS011;67739;52.986;8.894;2023-08-21T01:23:27;2.13;;;0.35;;
78443;SDS011;67739;52.986;8.894;2023-08-21T01:28:21;3.30;;;0.60;;
78443;SDS011;67739;52.986;8.894;2023-08-21T01:30:47;3.35;;;0.68;;
78443;SDS011;67739;52.986;8.894;2023-08-21T01:33:16;3.00;;;1.15;;
78443;SDS011;67739;52.986;8.894;2023-08-21T01:35:44;2.20;;;0.57;;
78443;SDS011;67739;52.986;8.894;2023-08-21T01:38:09;2.55;;;0.35;;
78443;SDS011;67739;52.986;8.894;2023-08-21T01:40:35;3.45;;;0.88;;
78443;SDS011;67739;52.986;8.894;2023-08-21T01:43:00;1.60;;;0.40;;
78443;SDS011;67739;52.986;8.894;2023-08-21T01:45:25;3.53;;;0.65;;
78443;SDS011;67739;52.986;8.894;2023-08-21T01:47:51;2.65;;;0.65;;
78443;SDS011;67739;52.986;8.894;2023-08-21T01:50:16;2.92;;;1.10;;
78443;SDS011;67739;52.986;8.894;2023-08-21T01:52:42;3.33;;;0.60;;
78443;SDS011;67739;52.986;8.894;2023-08-21T01:55:07;3.03;;;0.60;;
78443;SDS011;67739;52.986;8.894;2023-08-21T01:57:33;2.47;;;0.60;;
78443;SDS011;67739;52.986;8.894;2023-08-21T01:59:58;4.50;;;0.63;;
78443;SDS011;67739;52.986;8.894;2023-08-21T02:02:24;4.80;;;0.88;;
78443;SDS011;67739;52.986;8.894;2023-08-21T02:04:49;4.20;;;0.47;;
78443;SDS011;67739;52.986;8.894;2023-08-21T02:07:14;3.38;;;0.65;;
78443;SDS011;67739;52.986;8.894;2023-08-21T02:09:40;2.03;;;0.52;;
78443;SDS011;67739;52.986;8.894;2023-08-21T02:12:05;3.88;;;1.05;;
78443;SDS011;67739;52.986;8.894;2023-08-21T02:14:31;5.57;;;0.57;;
78443;SDS011;67739;52.986;8.894;2023-08-21T02:16:56;2.95;;;0.60;;
78443;SDS011;67739;52.986;8.894;2023-08-21T02:19:21;1.83;;;0.45;;
78443;SDS011;67739;52.986;8.894;2023-08-21T02:21:47;4.93;;;0.88;;
78443;SDS011;67739;52.986;8.894;2023-08-21T02:24:12;3.97;;;0.90;;
78443;SDS011;67739;52.986;8.894;2023-08-21T02:26:37;2.83;;;0.60;;
78443;SDS011;67739;52.986;8.894;2023-08-21T02:29:03;4.05;;;0.73;;
78443;SDS011;67739;52.986;8.894;2023-08-21T02:31:28;2.83;;;0.57;;
78443;SDS011;67739;52.986;8.894;2023-08-21T02:33:54;5.53;;;0.90;;
78443;SDS011;67739;52.986;8.894;2023-08-21T02:36:19;5.10;;;0.93;;
78443;SDS011;67739;52.986;8.894;2023-08-21T02:38:44;2.38;;;0.60;;
78443;SDS011;67739;52.986;8.894;2023-08-21T02:41:10;2.22;;;0.52;;
78443;SDS011;67739;52.986;8.894;2023-08-21T02:43:35;4.45;;;0.70;;
78443;SDS011;67739;52.986;8.894;2023-08-21T02:46:00;3.25;;;0.52;;
78443;SDS011;67739;52.986;8.894;2023-08-21T02:48:26;2.83;;;0.63;;
78443;SDS011;67739;52.986;8.894;2023-08-21T02:50:51;2.33;;;0.63;;
78443;SDS011;67739;52.986;8.894;2023-08-21T02:53:16;3.85;;;0.43;;
78443;SDS011;67739;52.986;8.894;2023-08-21T02:55:42;3.17;;;0.80;;
78443;SDS011;67739;52.986;8.894;2023-08-21T02:58:07;2.92;;;0.57;;
78443;SDS011;67739;52.986;8.894;2023-08-21T03:00:32;2.35;;;0.40;;
78443;SDS011;67739;52.986;8.894;2023-08-21T03:02:58;4.55;;;0.93;;
78443;SDS011;67739;52.986;8.894;2023-08-21T03:05:23;3.63;;;0.52;;
78443;SDS011;67739;52.986;8.894;2023-08-21T03:07:48;2.72;;;0.65;;
78443;SDS011;67739;52.986;8.894;2023-08-21T03:10:14;2.55;;;0.80;;
78443;SDS011;67739;52.986;8.894;2023-08-21T03:12:39;6.60;;;1.33;;
78443;SDS011;67739;52.986;8.894;2023-08-21T03:15:05;2.63;;;0.68;;
78443;SDS011;67739;52.986;8.894;2023-08-21T03:17:31;2.58;;;0.60;;
78443;SDS011;67739;52.986;8.894;2023-08-21T03:19:56;4.25;;;0.60;;
78443;SDS011;67739;52.986;8.894;2023-08-21T03:22:21;4.82;;;0.70;;
78443;SDS011;67739;52.986;8.894;2023-08-21T03:24:47;4.30;;;0.77;;
78443;SDS011;67739;52.986;8.894;2023-08-21T03:27:14;3.03;;;0.85;;
78443;SDS011;67739;52.986;8.894;2023-08-21T03:29:40;2.47;;;0.50;;
78443;SDS011;67739;52.986;8.894;2023-08-21T03:32:05;2.72;;;0.80;;
78443;SDS011;67739;52.986;8.894;2023-08-21T03:34:31;2.15;;;0.47;;
78443;SDS011;67739;52.986;8.894;2023-08-21T03:36:56;1.77;;;0.52;;
78443;SDS011;67739;52.986;8.894;2023-08-21T03:39:21;5.43;;;0.40;;
78443;SDS011;67739;52.986;8.894;2023-08-21T03:41:47;5.18;;;0.40;;
78443;SDS011;67739;52.986;8.894;2023-08-21T03:44:12;2.35;;;0.60;;
78443;SDS011;67739;52.986;8.894;2023-08-21T03:46:37;2.83;;;0.60;;
78443;SDS011;67739;52.986;8.894;2023-08-21T03:49:02;2.45;;;0.45;;
78443;SDS011;67739;52.986;8.894;2023-08-21T03:51:28;3.00;;;0.40;;
78443;SDS011;67739;52.986;8.894;2023-08-21T03:53:53;3.15;;;0.40;;
78443;SDS011;67739;52.986;8.894;2023-08-21T03:56:18;3.58;;;0.30;;
78443;SDS011;67739;52.986;8.894;2023-08-21T03:58:44;1.88;;;0.40;;
78443;SDS011;67739;52.986;8.894;2023-08-21T04:01:09;2.47;;;0.60;;
78443;SDS011;67739;52.986;8.894;2023-08-21T04:03:35;4.47;;;0.75;;
78443;SDS011;67739;52.986;8.894;2023-08-21T04:06:00;4.30;;;0.85;;
78443;SDS011;67739;52.986;8.894;2023-08-21T04:08:26;3.15;;;0.80;;
78443;SDS011;67739;52.986;8.894;2023-08-21T04:10:52;3.53;;;0.80;;
78443;SDS011;67739;52.986;8.894;2023-08-21T04:13:24;3.95;;;0.80;;
78443;SDS011;67739;52.986;8.894;2023-08-21T04:15:49;3.25;;;1.02;;
78443;SDS011;67739;52.986;8.894;2023-08-21T04:18:15;5.68;;;0.90;;
78443;SDS011;67739;52.986;8.894;2023-08-21T04:20:41;2.85;;;0.90;;
78443;SDS011;67739;52.986;8.894;2023-08-21T04:23:06;5.05;;;1.45;;
78443;SDS011;67739;52.986;8.894;2023-08-21T04:25:32;2.80;;;0.90;;
78443;SDS011;67739;52.986;8.894;2023-08-21T04:27:57;3.45;;;1.05;;
78443;SDS011;67739;52.986;8.894;2023-08-21T04:30:22;3.00;;;0.80;;
78443;SDS011;67739;52.986;8.894;2023-08-21T04:32:48;4.00;;;1.13;;
78443;SDS011;67739;52.986;8.894;2023-08-21T04:35:13;6.72;;;1.30;;
78443;SDS011;67739;52.986;8.894;2023-08-21T04:37:42;4.18;;;0.90;;
78443;SDS011;67739;52.986;8.894;2023-08-21T04:40:09;5.32;;;0.98;;
78443;SDS011;67739;52.986;8.894;2023-08-21T04:42:35;5.13;;;1.23;;
78443;SDS011;67739;52.986;8.894;2023-08-21T04:45:01;3.30;;;1.02;;
78443;SDS011;67739;52.986;8.894;2023-08-21T04:47:27;6.10;;;0.95;;
78443;SDS011;67739;52.986;8.894;2023-08-21T04:49:53;5.45;;;1.38;;
78443;SDS011;67739;52.986;8.894;2023-08-21T04:52:19;4.15;;;1.15;;
78443;SDS011;67739;52.986;8.894;2023-08-21T04:54:45;2.20;;;0.60;;
78443;SDS011;67739;52.986;8.894;2023-08-21T04:57:11;4.07;;;0.98;;
78443;SDS011;67739;52.986;8.894;2023-08-21T04:59:37;3.63;;;1.05;;
78443;SDS011;67739;52.986;8.894;2023-08-21T05:02:03;3.63;;;0.82;;
78443;SDS011;67739;52.986;8.894;2023-08-21T05:04:28;5.18;;;1.08;;
78443;SDS011;67739;52.986;8.894;2023-08-21T05:06:53;4.82;;;1.27;;
78443;SDS011;67739;52.986;8.894;2023-08-21T05:09:19;5.85;;;1.40;;
78443;SDS011;67739;52.986;8.894;2023-08-21T05:11:44;4.28;;;0.82;;
78443;SDS011;67739;52.986;8.894;2023-08-21T05:14:09;3.90;;;1.20;;
78443;SDS011;67739;52.986;8.894;2023-08-21T05:16:35;3.88;;;1.13;;
78443;SDS011;67739;52.986;8.894;2023-08-21T05:19:00;4.70;;;2.05;;
78443;SDS011;67739;52.986;8.894;2023-08-21T05:21:26;4.30;;;1.00;;
78443;SDS011;67739;52.986;8.894;2023-08-21T05:23:52;3.80;;;0.98;;
78443;SDS011;67739;52.986;8.894;2023-08-21T05:26:18;4.57;;;1.27;;
78443;SDS011;67739;52.986;8.894;2023-08-21T05:28:44;3.20;;;0.85;;
78443;SDS011;67739;52.986;8.894;2023-08-21T05:31:09;6.18;;;1.38;;
78443;SDS011;67739;52.986;8.894;2023-08-21T05:33:35;4.03;;;0.95;;
78443;SDS011;67739;52.986;8.894;2023-08-21T05:36:00;8.43;;;1.45;;
78443;SDS011;67739;52.986;8.894;2023-08-21T05:38:26;6.43;;;1.42;;
78443;SDS011;67739;52.986;8.894;2023-08-21T05:40:51;4.82;;;1.70;;
78443;SDS011;67739;52.986;8.894;2023-08-21T05:43:16;7.22;;;1.50;;
78443;SDS011;67739;52.986;8.894;2023-08-21T05:45:42;5.28;;;1.33;;
78443;SDS011;67739;52.986;8.894;2023-08-21T05:48:07;5.30;;;1.50;;
78443;SDS011;67739;52.986;8.894;2023-08-21T05:50:33;8.43;;;2.17;;
78443;SDS011;67739;52.986;8.894;2023-08-21T05:52:58;10.05;;;2.50;;
78443;SDS011;67739;52.986;8.894;2023-08-21T05:55:26;5.75;;;2.00;;
78443;SDS011;67739;52.986;8.894;2023-08-21T05:57:51;7.18;;;2.60;;
78443;SDS011;67739;52.986;8.894;2023-08-21T06:00:17;5.72;;;1.80;;
78443;SDS011;67739;52.986;8.894;2023-08-21T06:02:42;6.55;;;2.40;;
78443;SDS011;67739;52.986;8.894;2023-08-21T06:05:08;5.33;;;1.80;;
78443;SDS011;67739;52.986;8.894;2023-08-21T06:07:34;9.80;;;2.63;;
78443;SDS011;67739;52.986;8.894;2023-08-21T06:09:59;7.90;;;1.77;;
78443;SDS011;67739;52.986;8.894;2023-08-21T06:12:24;5.97;;;1.80;;
78443;SDS011;67739;52.986;8.894;2023-08-21T06:14:50;5.55;;;1.65;;
78443;SDS011;67739;52.986;8.894;2023-08-21T06:17:15;6.35;;;1.98;;
78443;SDS011;67739;52.986;8.894;2023-08-21T06:19:41;7.20;;;2.55;;
78443;SDS011;67739;52.986;8.894;2023-08-21T06:22:06;9.65;;;2.67;;
78443;SDS011;67739;52.986;8.894;2023-08-21T06:24:32;9.70;;;3.08;;
78443;SDS011;67739;52.986;8.894;2023-08-21T06:26:57;8.00;;;2.15;;
78443;SDS011;67739;52.986;8.894;2023-08-21T06:29:23;8.38;;;2.45;;
78443;SDS011;67739;52.986;8.894;2023-08-21T06:31:49;8.93;;;2.03;;
78443;SDS011;67739;52.986;8.894;2023-08-21T06:34:14;10.48;;;2.78;;
78443;SDS011;67739;52.986;8.894;2023-08-21T06:36:40;8.55;;;2.85;;
78443;SDS011;67739;52.986;8.894;2023-08-21T06:39:05;10.18;;;3.53;;
78443;SDS011;67739;52.986;8.894;2023-08-21T06:41:31;8.15;;;2.45;;
78443;SDS011;67739;52.986;8.894;2023-08-21T06:43:57;6.30;;;2.70;;
78443;SDS011;67739;52.986;8.894;2023-08-21T06:46:22;8.95;;;3.60;;
78443;SDS011;67739;52.986;8.894;2023-08-21T06:48:48;7.90;;;2.65;;
78443;SDS011;67739;52.986;8.894;2023-08-21T06:51:15;12.85;;;3.30;;
78443;SDS011;67739;52.986;8.894;2023-08-21T06:53:40;11.90;;;3.92;;
78443;SDS011;67739;52.986;8.894;2023-08-21T06:56:06;9.95;;;3.50;;
78443;SDS011;67739;52.986;8.894;2023-08-21T06:58:31;12.48;;;4.60;;
78443;SDS011;67739;52.986;8.894;2023-08-21T07:00:57;10.80;;;3.78;;
78443;SDS011;67739;52.986;8.894;2023-08-21T07:03:22;9.30;;;3.30;;
78443;SDS011;67739;52.986;8.894;2023-08-21T07:05:57;9.38;;;3.55;;
78443;SDS011;67739;52.986;8.894;2023-08-21T07:08:23;9.18;;;3.42;;
78443;SDS011;67739;52.986;8.894;2023-08-21T07:10:49;10.57;;;3.95;;
78443;SDS011;67739;52.986;8.894;2023-08-21T07:13:14;10.30;;;3.60;;
78443;SDS011;67739;52.986;8.894;2023-08-21T07:15:39;10.88;;;3.47;;
78443;SDS011;67739;52.986;8.894;2023-08-21T07:18:05;8.65;;;2.92;;
78443;SDS011;67739;52.986;8.894;2023-08-21T07:20:30;7.65;;;3.08;;
78443;SDS011;67739;52.986;8.894;2023-08-21T07:22:55;6.40;;;2.38;;
78443;SDS011;67739;52.986;8.894;2023-08-21T07:25:21;7.97;;;2.35;;
78443;SDS011;67739;52.986;8.894;2023-08-21T07:27:46;7.68;;;2.13;;
78443;SDS011;67739;52.986;8.894;2023-08-21T07:30:11;7.22;;;2.67;;
78443;SDS011;67739;52.986;8.894;2023-08-21T07:32:37;7.88;;;2.67;;
78443;SDS011;67739;52.986;8.894;2023-08-21T07:35:02;8.93;;;2.13;;
78443;SDS011;67739;52.986;8.894;2023-08-21T07:37:28;6.20;;;2.38;;
78443;SDS011;67739;52.986;8.894;2023-08-21T07:39:53;8.23;;;2.95;;
78443;SDS011;67739;52.986;8.894;2023-08-21T07:42:22;9.75;;;2.20;;
78443;SDS011;67739;52.986;8.894;2023-08-21T07:44:47;5.57;;;1.90;;
78443;SDS011;67739;52.986;8.894;2023-08-21T07:47:12;9.13;;;2.78;;
78443;SDS011;67739;52.986;8.894;2023-08-21T07:49:37;9.00;;;2.42;;
78443;SDS011;67739;52.986;8.894;2023-08-21T07:52:03;14.15;;;2.67;;
78443;SDS011;67739;52.986;8.894;2023-08-21T07:54:29;10.20;;;2.72;;
78443;SDS011;67739;52.986;8.894;2023-08-21T07:56:54;6.13;;;1.92;;
78443;SDS011;67739;52.986;8.894;2023-08-21T07:59:19;11.00;;;2.25;;
78443;SDS011;67739;52.986;8.894;2023-08-21T08:01:45;12.85;;;3.25;;
78443;SDS011;67739;52.986;8.894;2023-08-21T08:04:11;8.93;;;2.05;;
78443;SDS011;67739;52.986;8.894;2023-08-21T08:06:36;12.75;;;1.95;;
78443;SDS011;67739;52.986;8.894;2023-08-21T08:09:01;8.15;;;1.92;;
78443;SDS011;67739;52.986;8.894;2023-08-21T08:11:28;9.45;;;2.05;;
78443;SDS011;67739;52.986;8.894;2023-08-21T08:13:54;9.57;;;1.90;;
78443;SDS011;67739;52.986;8.894;2023-08-21T08:16:20;7.40;;;1.88;;
78443;SDS011;67739;52.986;8.894;2023-08-21T08:18:46;8.57;;;1.77;;
78443;SDS011;67739;52.986;8.894;2023-08-21T08:21:11;9.10;;;2.10;;
78443;SDS011;67739;52.986;8.894;2023-08-21T08:23:37;8.60;;;1.92;;
78443;SDS011;67739;52.986;8.894;2023-08-21T08:26:02;7.60;;;1.70;;
78443;SDS011;67739;52.986;8.894;2023-08-21T08:28:28;7.72;;;1.65;;
78443;SDS011;67739;52.986;8.894;2023-08-21T08:30:53;7.95;;;1.60;;
78443;SDS011;67739;52.986;8.894;2023-08-21T08:33:19;6.60;;;1.92;;
78443;SDS011;67739;52.986;8.894;2023-08-21T08:35:44;6.60;;;1.23;;
78443;SDS011;67739;52.986;8.894;2023-08-21T08:38:10;5.78;;;1.25;;
78443;SDS011;67739;52.986;8.894;2023-08-21T08:40:37;9.82;;;1.83;;
78443;SDS011;67739;52.986;8.894;2023-08-21T08:43:07;8.25;;;1.63;;
78443;SDS011;67739;52.986;8.894;2023-08-21T08:45:33;8.38;;;1.83;;
78443;SDS011;67739;52.986;8.894;2023-08-21T08:47:59;6.18;;;1.63;;
78443;SDS011;67739;52.986;8.894;2023-08-21T08:50:28;6.93;;;2.30;;
78443;SDS011;67739;52.986;8.894;2023-08-21T08:52:55;9.82;;;1.30;;
78443;SDS011;67739;52.986;8.894;2023-08-21T08:55:22;5.50;;;1.83;;
78443;SDS011;67739;52.986;8.894;2023-08-21T08:57:47;7.78;;;1.25;;
78443;SDS011;67739;52.986;8.894;2023-08-21T09:00:13;5.60;;;1.15;;
78443;SDS011;67739;52.986;8.894;2023-08-21T09:02:39;6.68;;;1.13;;
78443;SDS011;67739;52.986;8.894;2023-08-21T09:05:04;5.93;;;1.23;;
78443;SDS011;67739;52.986;8.894;2023-08-21T09:07:29;5.70;;;1.50;;
78443;SDS011;67739;52.986;8.894;2023-08-21T09:09:55;8.85;;;1.55;;
78443;SDS011;67739;52.986;8.894;2023-08-21T09:12:20;6.65;;;1.17;;
78443;SDS011;67739;52.986;8.894;2023-08-21T09:14:46;4.43;;;1.48;;
78443;SDS011;67739;52.986;8.894;2023-08-21T09:17:12;4.47;;;1.13;;
78443;SDS011;67739;52.986;8.894;2023-08-21T09:19:38;4.60;;;1.40;;
78443;SDS011;67739;52.986;8.894;2023-08-21T09:22:08;4.90;;;1.02;;
78443;SDS011;67739;52.986;8.894;2023-08-21T09:24:38;4.88;;;0.88;;
78443;SDS011;67739;52.986;8.894;2023-08-21T09:27:04;3.80;;;1.40;;
78443;SDS011;67739;52.986;8.894;2023-08-21T09:29:37;5.88;;;1.10;;
78443;SDS011;67739;52.986;8.894;2023-08-21T09:32:06;4.03;;;1.13;;
78443;SDS011;67739;52.986;8.894;2023-08-21T09:34:34;4.40;;;1.08;;
78443;SDS011;67739;52.986;8.894;2023-08-21T09:37:06;5.18;;;1.25;;
78443;SDS011;67739;52.986;8.894;2023-08-21T09:39:33;6.22;;;1.23;;
78443;SDS011;67739;52.986;8.894;2023-08-21T09:42:08;5.40;;;1.30;;
78443;SDS011;67739;52.986;8.894;2023-08-21T09:47:03;5.80;;;1.75;;
78443;SDS011;67739;52.986;8.894;2023-08-21T09:49:29;9.23;;;1.33;;
78443;SDS011;67739;52.986;8.894;2023-08-21T09:51:56;6.13;;;1.08;;
78443;SDS011;67739;52.986;8.894;2023-08-21T09:54:22;5.25;;;1.25;;
78443;SDS011;67739;52.986;8.894;2023-08-21T09:56:48;4.32;;;0.98;;
78443;SDS011;67739;52.986;8.894;2023-08-21T09:59:14;5.28;;;1.10;;
78443;SDS011;67739;52.986;8.894;2023-08-21T10:01:39;6.25;;;0.80;;
78443;SDS011;67739;52.986;8.894;2023-08-21T10:04:05;3.00;;;0.75;;
78443;SDS011;67739;52.986;8.894;2023-08-21T10:06:34;5.18;;;0.82;;
78443;SDS011;67739;52.986;8.894;2023-08-21T10:09:01;4.70;;;0.90;;
78443;SDS011;67739;52.986;8.894;2023-08-21T10:11:27;4.28;;;0.77;;
78443;SDS011;67739;52.986;8.894;2023-08-21T10:13:53;10.48;;;1.73;;
78443;SDS011;67739;52.986;8.894;2023-08-21T10:16:18;4.60;;;0.73;;
78443;SDS011;67739;52.986;8.894;2023-08-21T10:18:46;5.88;;;1.33;;
78443;SDS011;67739;52.986;8.894;2023-08-21T10:21:13;4.45;;;0.70;;
78443;SDS011;67739;52.986;8.894;2023-08-21T10:23:40;3.58;;;0.88;;
78443;SDS011;67739;52.986;8.894;2023-08-21T10:26:06;5.43;;;0.82;;
78443;SDS011;67739;52.986;8.894;2023-08-21T10:28:43;3.05;;;0.63;;
78443;SDS011;67739;52.986;8.894;2023-08-21T10:33:55;3.17;;;0.40;;
78443;SDS011;67739;52.986;8.894;2023-08-21T10:39:03;4.78;;;0.88;;
78443;SDS011;67739;52.986;8.894;2023-08-21T10:41:29;3.70;;;0.60;;
78443;SDS011;67739;52.986;8.894;2023-08-21T10:43:55;2.10;;;0.30;;
78443;SDS011;67739;52.986;8.894;2023-08-21T10:46:20;4.32;;;0.90;;
78443;SDS011;67739;52.986;8.894;2023-08-21T10:48:45;4.25;;;0.98;;
78443;SDS011;67739;52.986;8.894;2023-08-21T10:51:11;4.70;;;0.77;;
78443;SDS011;67739;52.986;8.894;2023-08-21T10:53:37;4.05;;;0.70;;
78443;SDS011;67739;52.986;8.894;2023-08-21T10:56:05;2.92;;;0.43;;
78443;SDS011;67739;52.986;8.894;2023-08-21T10:58:34;3.88;;;0.60;;
78443;SDS011;67739;52.986;8.894;2023-08-21T11:01:03;2.63;;;0.50;;
78443;SDS011;67739;52.986;8.894;2023-08-21T11:03:28;4.53;;;0.80;;
78443;SDS011;67739;52.986;8.894;2023-08-21T11:06:00;2.80;;;0.47;;
78443;SDS011;67739;52.986;8.894;2023-08-21T11:08:28;2.90;;;0.50;;
78443;SDS011;67739;52.986;8.894;2023-08-21T11:10:53;3.22;;;0.63;;
78443;SDS011;67739;52.986;8.894;2023-08-21T11:13:18;3.95;;;1.35;;
78443;SDS011;67739;52.986;8.894;2023-08-21T11:15:46;4.40;;;0.60;;
78443;SDS011;67739;52.986;8.894;2023-08-21T11:18:11;3.95;;;0.70;;
78443;SDS011;67739;52.986;8.894;2023-08-21T11:20:37;3.13;;;0.57;;
78443;SDS011;67739;52.986;8.894;2023-08-21T11:23:06;1.95;;;0.35;;
78443;SDS011;67739;52.986;8.894;2023-08-21T11:25:32;4.25;;;1.38;;
78443;SDS011;67739;52.986;8.894;2023-08-21T11:27:59;1.55;;;0.40;;
78443;SDS011;67739;52.986;8.894;2023-08-21T11:30:27;2.90;;;0.43;;
78443;SDS011;67739;52.986;8.894;2023-08-21T11:33:13;3.25;;;0.50;;
78443;SDS011;67739;52.986;8.894;2023-08-21T11:35:39;1.85;;;0.30;;
78443;SDS011;67739;52.986;8.894;2023-08-21T11:38:05;3.40;;;0.68;;
78443;SDS011;67739;52.986;8.894;2023-08-21T11:40:34;2.70;;;0.50;;
78443;SDS011;67739;52.986;8.894;2023-08-21T11:43:02;3.15;;;0.88;;
78443;SDS011;67739;52.986;8.894;2023-08-21T11:45:30;2.63;;;0.38;;
78443;SDS011;67739;52.986;8.894;2023-08-21T11:47:55;1.80;;;0.40;;
78443;SDS011;67739;52.986;8.894;2023-08-21T11:50:21;2.20;;;0.25;;
78443;SDS011;67739;52.986;8.894;2023-08-21T11:52:47;2.28;;;0.38;;
78443;SDS011;67739;52.986;8.894;2023-08-21T11:55:12;2.88;;;0.40;;
78443;SDS011;67739;52.986;8.894;2023-08-21T11:57:48;1.30;;;0.20;;
78443;SDS011;67739;52.986;8.894;2023-08-21T12:00:15;1.15;;;0.32;;
78443;SDS011;67739;52.986;8.894;2023-08-21T12:02:53;2.60;;;0.95;;
78443;SDS011;67739;52.986;8.894;2023-08-21T12:05:20;2.22;;;0.38;;
78443;SDS011;67739;52.986;8.894;2023-08-21T12:07:45;1.98;;;0.50;;
78443;SDS011;67739;52.986;8.894;2023-08-21T12:10:10;1.70;;;0.30;;
78443;SDS011;67739;52.986;8.894;2023-08-21T12:12:36;2.10;;;0.30;;
78443;SDS011;67739;52.986;8.894;2023-08-21T12:15:01;1.38;;;0.22;;
78443;SDS011;67739;52.986;8.894;2023-08-21T12:17:27;2.80;;;0.40;;
78443;SDS011;67739;52.986;8.894;2023-08-21T12:19:52;2.33;;;0.40;;
78443;SDS011;67739;52.986;8.894;2023-08-21T12:22:17;2.00;;;0.32;;
78443;SDS011;67739;52.986;8.894;2023-08-21T12:24:43;1.10;;;0.25;;
78443;SDS011;67739;52.986;8.894;2023-08-21T12:27:08;1.58;;;0.40;;
78443;SDS011;67739;52.986;8.894;2023-08-21T12:29:33;2.08;;;0.30;;
78443;SDS011;67739;52.986;8.894;2023-08-21T12:31:59;1.08;;;0.20;;
78443;SDS011;67739;52.986;8.894;2023-08-21T12:34:25;2.75;;;0.40;;
78443;SDS011;67739;52.986;8.894;2023-08-21T12:36:50;2.50;;;0.35;;
78443;SDS011;67739;52.986;8.894;2023-08-21T12:39:16;1.95;;;0.30;;
78443;SDS011;67739;52.986;8.894;2023-08-21T12:41:42;2.22;;;0.25;;
78443;SDS011;67739;52.986;8.894;2023-08-21T12:44:08;2.10;;;0.40;;
78443;SDS011;67739;52.986;8.894;2023-08-21T12:46:34;2.20;;;0.30;;
78443;SDS011;67739;52.986;8.894;2023-08-21T12:49:03;1.38;;;0.20;;
78443;SDS011;67739;52.986;8.894;2023-08-21T12:51:29;2.67;;;0.30;;
78443;SDS011;67739;52.986;8.894;2023-08-21T12:53:54;1.23;;;0.20;;
78443;SDS011;67739;52.986;8.894;2023-08-21T12:56:20;2.05;;;0.30;;
78443;SDS011;67739;52.986;8.894;2023-08-21T12:58:46;1.63;;;0.30;;
78443;SDS011;67739;52.986;8.894;2023-08-21T13:01:12;1.85;;;0.38;;
78443;SDS011;67739;52.986;8.894;2023-08-21T13:03:37;1.98;;;0.45;;
78443;SDS011;67739;52.986;8.894;2023-08-21T13:06:03;1.58;;;0.22;;
78443;SDS011;67739;52.986;8.894;2023-08-21T13:08:29;1.88;;;0.30;;
78443;SDS011;67739;52.986;8.894;2023-08-21T13:10:54;1.73;;;0.25;;
78443;SDS011;67739;52.986;8.894;2023-08-21T13:13:20;1.63;;;0.20;;
78443;SDS011;67739;52.986;8.894;2023-08-21T13:15:46;1.52;;;0.20;;
78443;SDS011;67739;52.986;8.894;2023-08-21T13:18:11;1.70;;;0.30;;
78443;SDS011;67739;52.986;8.894;2023-08-21T13:20:39;0.93;;;0.17;;
78443;SDS011;67739;52.986;8.894;2023-08-21T13:23:05;2.58;;;0.30;;
78443;SDS011;67739;52.986;8.894;2023-08-21T13:25:31;2.78;;;0.50;;
78443;SDS011;67739;52.986;8.894;2023-08-21T13:27:56;1.90;;;0.32;;
78443;SDS011;67739;52.986;8.894;2023-08-21T13:30:21;0.88;;;0.20;;
78443;SDS011;67739;52.986;8.894;2023-08-21T13:32:48;1.80;;;0.22;;
78443;SDS011;67739;52.986;8.894;2023-08-21T13:35:13;1.60;;;0.25;;
78443;SDS011;67739;52.986;8.894;2023-08-21T13:37:39;3.15;;;0.50;;
78443;SDS011;67739;52.986;8.894;2023-08-21T13:40:05;1.38;;;0.25;;
78443;SDS011;67739;52.986;8.894;2023-08-21T13:45:11;1.77;;;0.30;;
78443;SDS011;67739;52.986;8.894;2023-08-21T13:47:47;2.00;;;0.30;;
78443;SDS011;67739;52.986;8.894;2023-08-21T13:50:16;1.63;;;0.25;;
78443;SDS011;67739;52.986;8.894;2023-08-21T13:52:43;1.85;;;0.20;;
78443;SDS011;67739;52.986;8.894;2023-08-21T13:55:12;2.38;;;0.22;;
78443;SDS011;67739;52.986;8.894;2023-08-21T13:57:38;2.67;;;0.38;;
78443;SDS011;67739;52.986;8.894;2023-08-21T14:00:04;2.28;;;0.35;;
78443;SDS011;67739;52.986;8.894;2023-08-21T14:02:32;1.10;;;0.20;;
78443;SDS011;67739;52.986;8.894;2023-08-21T14:05:01;1.63;;;0.40;;
78443;SDS011;67739;52.986;8.894;2023-08-21T14:07:26;2.70;;;0.30;;
78443;SDS011;67739;52.986;8.894;2023-08-21T14:09:52;2.47;;;0.30;;
78443;SDS011;67739;52.986;8.894;2023-08-21T14:12:17;1.88;;;0.38;;
78443;SDS011;67739;52.986;8.894;2023-08-21T14:14:42;2.45;;;0.50;;
78443;SDS011;67739;52.986;8.894;2023-08-21T14:17:07;2.05;;;0.40;;
78443;SDS011;67739;52.986;8.894;2023-08-21T14:19:33;1.98;;;0.43;;
78443;SDS011;67739;52.986;8.894;2023-08-21T14:21:58;1.58;;;0.30;;
78443;SDS011;67739;52.986;8.894;2023-08-21T14:24:24;0.75;;;0.20;;
78443;SDS011;67739;52.986;8.894;2023-08-21T14:26:49;1.75;;;0.30;;
78443;SDS011;67739;52.986;8.894;2023-08-21T14:29:15;1.55;;;0.30;;
78443;SDS011;67739;52.986;8.894;2023-08-21T14:31:40;1.80;;;0.30;;
78443;SDS011;67739;52.986;8.894;2023-08-21T14:34:05;1.50;;;0.30;;
78443;SDS011;67739;52.986;8.894;2023-08-21T14:36:31;1.80;;;0.38;;
78443;SDS011;67739;52.986;8.894;2023-08-21T14:38:56;3.42;;;0.80;;
78443;SDS011;67739;52.986;8.894;2023-08-21T14:41:21;1.55;;;0.20;;
78443;SDS011;67739;52.986;8.894;2023-08-21T14:43:47;2.00;;;0.20;;
78443;SDS011;67739;52.986;8.894;2023-08-21T14:46:12;1.35;;;0.25;;
78443;SDS011;67739;52.986;8.894;2023-08-21T14:48:38;1.65;;;0.30;;
78443;SDS011;67739;52.986;8.894;2023-08-21T14:51:04;1.90;;;0.55;;
78443;SDS011;67739;52.986;8.894;2023-08-21T14:53:29;1.95;;;0.47;;
78443;SDS011;67739;52.986;8.894;2023-08-21T14:55:55;1.05;;;0.20;;
78443;SDS011;67739;52.986;8.894;2023-08-21T14:58:20;2.25;;;0.30;;
78443;SDS011;67739;52.986;8.894;2023-08-21T15:00:45;1.00;;;0.30;;